createdAt,value
2022-11-19T00:01:26.948Z,11.90
2022-11-19T00:03:54.883Z,10.93
2022-11-19T00:06:24.618Z,11.30
2022-11-19T00:08:52.206Z,11.30
2022-11-19T00:11:43.642Z,11.43
2022-11-19T00:14:13.126Z,11.65
2022-11-19T00:16:40.773Z,12.82
2022-11-19T00:19:08.057Z,11.60
2022-11-19T00:21:35.343Z,11.63
2022-11-19T00:24:02.660Z,12.45
2022-11-19T00:26:29.997Z,11.82
2022-11-19T00:28:57.253Z,11.48
2022-11-19T00:31:24.645Z,11.65
2022-11-19T00:33:54.181Z,11.90
2022-11-19T00:36:22.671Z,11.77
2022-11-19T00:38:50.001Z,11.15
2022-11-19T00:41:17.209Z,11.98
2022-11-19T00:43:47.287Z,12.20
2022-11-19T00:46:34.980Z,12.30
2022-11-19T00:49:02.287Z,11.77
2022-11-19T00:51:31.393Z,11.77
2022-11-19T00:53:58.648Z,11.80
2022-11-19T00:56:27.472Z,11.55
2022-11-19T00:58:55.392Z,11.10
2022-11-19T01:01:24.892Z,11.85
2022-11-19T01:03:52.658Z,10.95
2022-11-19T01:06:21.839Z,11.55
2022-11-19T01:08:51.024Z,11.23
2022-11-19T01:11:30.111Z,11.25
2022-11-19T01:13:58.868Z,11.23
2022-11-19T01:16:34.818Z,10.88
2022-11-19T01:19:03.944Z,10.27
2022-11-19T01:21:33.213Z,10.73
2022-11-19T01:24:01.056Z,11.18
2022-11-19T01:26:29.211Z,10.52
2022-11-19T01:28:57.127Z,11.13
2022-11-19T01:31:26.895Z,10.70
2022-11-19T01:33:54.783Z,11.10
2022-11-19T01:36:24.665Z,10.45
2022-11-19T01:38:52.758Z,9.93
2022-11-19T01:41:26.087Z,11.30
2022-11-19T01:43:58.999Z,10.20
2022-11-19T01:46:29.457Z,11.18
2022-11-19T01:49:05.908Z,10.40
2022-11-19T01:51:46.044Z,10.45
2022-11-19T01:54:28.286Z,10.50
2022-11-19T01:57:00.322Z,10.65
2022-11-19T01:59:30.232Z,10.40
2022-11-19T02:01:57.825Z,11.00
2022-11-19T02:04:25.719Z,10.05
2022-11-19T02:06:55.089Z,10.88
2022-11-19T02:09:23.057Z,10.25
2022-11-19T02:12:09.093Z,10.45
2022-11-19T02:14:54.850Z,10.20
2022-11-19T02:18:04.774Z,9.70
2022-11-19T02:20:55.464Z,10.32
2022-11-19T02:23:46.354Z,9.57
2022-11-19T02:26:45.663Z,9.93
2022-11-19T02:29:31.695Z,9.13
2022-11-19T02:32:10.150Z,9.13
2022-11-19T02:34:57.357Z,9.32
2022-11-19T02:37:31.966Z,9.18
2022-11-19T02:42:53.326Z,8.20
2022-11-19T02:45:33.426Z,8.70
2022-11-19T02:48:24.649Z,8.95
2022-11-19T02:50:59.399Z,8.25
2022-11-19T02:56:12.859Z,8.13
2022-11-19T02:59:10.362Z,7.90
2022-11-19T03:02:01.108Z,7.90
2022-11-19T03:04:29.934Z,8.38
2022-11-19T03:07:09.149Z,8.18
2022-11-19T03:09:41.519Z,8.30
2022-11-19T03:12:19.466Z,8.25
2022-11-19T03:15:18.599Z,7.95
2022-11-19T03:18:12.856Z,8.02
2022-11-19T03:20:44.860Z,8.40
2022-11-19T03:23:37.200Z,8.40
2022-11-19T03:26:35.038Z,8.10
2022-11-19T03:29:06.065Z,7.85
2022-11-19T03:31:34.604Z,7.82
2022-11-19T03:34:08.148Z,7.75
2022-11-19T03:36:41.644Z,7.60
2022-11-19T03:39:18.245Z,7.93
2022-11-19T03:41:48.821Z,8.25
2022-11-19T03:44:33.572Z,7.38
2022-11-19T03:47:16.042Z,8.15
2022-11-19T03:49:48.785Z,8.02
2022-11-19T03:52:19.948Z,7.78
2022-11-19T03:54:47.658Z,7.88
2022-11-19T03:57:18.490Z,7.82
2022-11-19T03:59:47.009Z,7.68
2022-11-19T04:02:15.242Z,8.00
2022-11-19T04:04:42.586Z,8.15
2022-11-19T04:07:15.583Z,7.72
2022-11-19T04:09:43.276Z,8.10
2022-11-19T04:12:18.026Z,8.20
2022-11-19T04:17:13.034Z,8.32
2022-11-19T04:19:40.405Z,7.90
2022-11-19T04:22:08.007Z,7.47
2022-11-19T04:24:35.420Z,7.85
2022-11-19T04:27:03.336Z,7.68
2022-11-19T04:29:30.594Z,8.63
2022-11-19T04:31:57.854Z,8.20
2022-11-19T04:34:25.087Z,8.07
2022-11-19T04:36:52.308Z,8.27
2022-11-19T04:39:19.840Z,8.07
2022-11-19T04:41:47.371Z,8.23
2022-11-19T04:44:14.598Z,8.05
2022-11-19T04:46:41.858Z,8.40
2022-11-19T04:49:09.139Z,8.43
2022-11-19T04:51:36.362Z,9.15
2022-11-19T04:54:03.877Z,8.55
2022-11-19T04:56:31.025Z,8.60
2022-11-19T04:58:58.216Z,8.95
2022-11-19T05:01:25.484Z,8.50
2022-11-19T05:03:52.933Z,8.82
2022-11-19T05:06:20.273Z,9.20
2022-11-19T05:08:47.504Z,8.90
2022-11-19T05:11:14.749Z,8.45
2022-11-19T05:13:42.001Z,8.85
2022-11-19T05:16:09.264Z,8.90
2022-11-19T05:18:36.529Z,8.75
2022-11-19T05:21:03.884Z,9.48
2022-11-19T05:23:31.118Z,9.75
2022-11-19T05:25:58.475Z,9.05
2022-11-19T05:28:38.141Z,9.73
2022-11-19T05:31:06.776Z,10.07
2022-11-19T05:33:34.746Z,9.82
2022-11-19T05:36:02.703Z,10.05
2022-11-19T05:38:30.056Z,10.40
2022-11-19T05:40:57.448Z,10.60
2022-11-19T05:43:24.697Z,10.05
2022-11-19T05:45:51.995Z,10.55
2022-11-19T05:48:19.263Z,10.48
2022-11-19T05:50:46.584Z,10.55
2022-11-19T05:53:13.795Z,10.43
2022-11-19T05:55:41.100Z,11.00
2022-11-19T05:58:08.285Z,11.07
2022-11-19T06:00:35.506Z,10.25
2022-11-19T06:03:02.848Z,10.63
2022-11-19T06:05:30.125Z,11.13
2022-11-19T06:07:57.471Z,11.00
2022-11-19T06:10:24.717Z,11.40
2022-11-19T06:12:51.924Z,11.70
2022-11-19T06:15:19.268Z,11.05
2022-11-19T06:17:46.485Z,11.30
2022-11-19T06:20:13.813Z,12.05
2022-11-19T06:22:41.129Z,12.00
2022-11-19T06:25:08.809Z,11.80
2022-11-19T06:27:36.155Z,12.13
2022-11-19T06:30:03.887Z,12.98
2022-11-19T06:32:31.153Z,11.70
2022-11-19T06:34:58.457Z,13.45
2022-11-19T06:37:25.713Z,12.93
2022-11-19T06:39:54.144Z,13.45
2022-11-19T06:42:37.223Z,13.85
2022-11-19T06:45:09.999Z,13.20
2022-11-19T06:47:38.260Z,13.57
2022-11-19T06:50:07.270Z,13.68
2022-11-19T06:52:34.553Z,13.15
2022-11-19T06:55:01.832Z,14.25
2022-11-19T06:57:29.141Z,14.70
2022-11-19T06:59:56.432Z,14.15
2022-11-19T07:02:23.705Z,14.18
2022-11-19T07:04:50.946Z,14.32
2022-11-19T07:07:18.743Z,13.90
2022-11-19T07:09:46.098Z,13.88
2022-11-19T07:12:13.446Z,14.20
2022-11-19T07:14:40.717Z,14.30
2022-11-19T07:17:08.130Z,14.25
2022-11-19T07:19:35.409Z,14.70
2022-11-19T07:22:02.644Z,16.10
2022-11-19T07:24:29.922Z,14.82
2022-11-19T07:26:57.266Z,14.60
2022-11-19T07:29:24.519Z,14.73
2022-11-19T07:31:53.331Z,15.48
2022-11-19T07:34:21.028Z,15.15
2022-11-19T07:36:48.545Z,14.30
2022-11-19T07:39:16.059Z,14.75
2022-11-19T07:42:02.021Z,14.50
2022-11-19T07:44:29.267Z,14.90
2022-11-19T07:46:56.508Z,14.88
2022-11-19T07:49:24.981Z,14.50
2022-11-19T07:51:53.211Z,14.68
2022-11-19T07:54:20.517Z,15.05
2022-11-19T07:56:47.751Z,14.82
2022-11-19T07:59:15.115Z,13.93
2022-11-19T08:01:42.627Z,14.98
2022-11-19T08:04:10.203Z,15.32
2022-11-19T08:06:37.567Z,14.90
2022-11-19T08:09:05.499Z,15.05
2022-11-19T08:11:32.882Z,15.35
2022-11-19T08:14:03.926Z,15.20
2022-11-19T08:16:51.906Z,15.57
2022-11-19T08:19:20.247Z,16.33
2022-11-19T08:21:48.129Z,15.60
2022-11-19T08:24:17.921Z,16.35
2022-11-19T08:26:46.095Z,16.60
2022-11-19T08:29:16.492Z,16.90
2022-11-19T08:31:45.261Z,16.38
2022-11-19T08:34:13.017Z,17.10
2022-11-19T08:36:40.467Z,16.40
2022-11-19T08:39:08.059Z,16.58
2022-11-19T08:41:54.308Z,16.33
2022-11-19T08:44:22.421Z,17.67
2022-11-19T08:46:50.645Z,17.42
2022-11-19T08:49:18.213Z,18.20
2022-11-19T08:51:45.474Z,17.88
2022-11-19T08:54:13.297Z,17.98
2022-11-19T08:56:40.643Z,19.35
2022-11-19T08:59:08.270Z,18.45
2022-11-19T09:01:35.746Z,19.15
2022-11-19T09:04:03.166Z,19.23
2022-11-19T09:06:30.805Z,19.30
2022-11-19T09:08:58.453Z,19.02
2022-11-19T09:11:25.752Z,20.42
2022-11-19T09:13:53.082Z,19.95
2022-11-19T09:16:20.305Z,19.50
2022-11-19T09:18:47.666Z,20.00
2022-11-19T09:21:15.345Z,20.10
2022-11-19T09:23:42.747Z,21.48
2022-11-19T09:26:15.329Z,21.30
2022-11-19T09:28:43.958Z,21.83
2022-11-19T09:31:14.701Z,21.65
2022-11-19T09:33:45.642Z,20.92
2022-11-19T09:36:14.550Z,20.70
2022-11-19T09:38:42.026Z,22.23
2022-11-19T09:41:17.882Z,21.67
2022-11-19T09:44:20.887Z,21.33
2022-11-19T09:47:06.305Z,21.50
2022-11-19T09:49:43.140Z,21.40
2022-11-19T09:52:19.687Z,21.13
2022-11-19T09:54:55.673Z,21.65
2022-11-19T09:57:28.411Z,21.50
2022-11-19T10:00:00.121Z,21.65
2022-11-19T10:02:28.237Z,21.88
2022-11-19T10:04:55.657Z,21.30
2022-11-19T10:08:09.769Z,21.17
2022-11-19T10:10:46.954Z,19.92
2022-11-19T10:13:37.581Z,20.63
2022-11-19T10:16:19.905Z,22.42
2022-11-19T10:18:53.347Z,21.02
2022-11-19T10:21:38.364Z,21.45
2022-11-19T10:24:18.358Z,21.77
2022-11-19T10:26:50.993Z,21.02
2022-11-19T10:29:23.418Z,21.83
2022-11-19T10:31:52.173Z,21.52
2022-11-19T10:34:27.576Z,20.33
2022-11-19T10:36:57.265Z,21.08
2022-11-19T10:39:39.986Z,21.75
2022-11-19T10:42:29.260Z,19.60
2022-11-19T10:45:03.202Z,20.65
2022-11-19T10:48:05.931Z,19.75
2022-11-19T10:50:36.385Z,20.08
2022-11-19T10:53:43.842Z,18.77
2022-11-19T10:56:21.366Z,19.15
2022-11-19T10:59:18.529Z,19.90
2022-11-19T11:01:50.035Z,18.63
2022-11-19T11:04:22.080Z,19.23
2022-11-19T11:06:57.637Z,19.38
2022-11-19T11:09:30.990Z,19.70
2022-11-19T11:12:34.112Z,19.63
2022-11-19T11:15:25.619Z,19.92
2022-11-19T11:18:10.724Z,19.42
2022-11-19T11:23:27.654Z,20.10
2022-11-19T11:26:17.789Z,20.10
2022-11-19T11:29:25.279Z,20.30
2022-11-19T11:31:53.710Z,19.83
2022-11-19T11:34:29.659Z,19.10
2022-11-19T11:36:58.929Z,18.63
2022-11-19T11:39:29.880Z,18.77
2022-11-19T11:42:06.034Z,18.88
2022-11-19T11:44:37.063Z,18.40
2022-11-19T11:47:16.256Z,18.65
2022-11-19T11:49:49.569Z,19.75
2022-11-19T11:52:26.711Z,17.98
2022-11-19T11:55:00.268Z,17.45
2022-11-19T11:57:31.845Z,19.00
2022-11-19T11:59:59.915Z,18.70
2022-11-19T12:02:30.871Z,18.70
2022-11-19T12:05:05.177Z,17.80
2022-11-19T12:07:53.898Z,18.35
2022-11-19T12:10:30.161Z,18.70
2022-11-19T12:13:00.328Z,17.73
2022-11-19T12:15:46.302Z,18.20
2022-11-19T12:18:42.199Z,17.10
2022-11-19T12:21:24.662Z,17.50
2022-11-19T12:24:06.810Z,17.73
2022-11-19T12:26:46.512Z,17.73
2022-11-19T12:29:52.316Z,17.73
2022-11-19T12:35:26.898Z,17.10
2022-11-19T12:38:12.731Z,17.90
2022-11-19T12:40:49.395Z,16.98
2022-11-19T12:43:40.080Z,17.05
2022-11-19T12:46:30.417Z,17.80
2022-11-19T12:49:22.576Z,17.17
2022-11-19T13:02:59.400Z,18.20
2022-11-19T13:08:11.738Z,18.20
2022-11-19T13:11:18.341Z,17.48
2022-11-19T13:13:51.054Z,17.38
2022-11-19T13:16:21.759Z,17.10
2022-11-19T13:18:52.373Z,16.38
2022-11-19T13:21:40.437Z,16.65
2022-11-19T13:24:36.050Z,17.38
2022-11-19T13:27:06.313Z,16.40
2022-11-19T13:29:40.454Z,16.50
2022-11-19T13:32:41.017Z,16.35
2022-11-19T13:35:25.058Z,14.63
2022-11-19T13:38:14.372Z,15.65
2022-11-19T13:40:55.820Z,15.07
2022-11-19T13:43:42.292Z,15.43
2022-11-19T13:46:21.429Z,14.93
2022-11-19T13:49:00.925Z,15.10
2022-11-19T13:51:48.951Z,16.88
2022-11-19T13:54:27.601Z,16.48
2022-11-19T13:56:58.081Z,16.30
2022-11-19T13:59:30.884Z,15.93
2022-11-19T14:02:04.258Z,15.75
2022-11-19T14:04:53.282Z,14.88
2022-11-19T14:07:52.312Z,14.95
2022-11-19T14:10:29.213Z,14.88
2022-11-19T14:13:20.549Z,14.38
2022-11-19T14:16:21.132Z,13.88
2022-11-19T14:19:11.497Z,15.15
2022-11-19T14:21:57.284Z,15.35
2022-11-19T14:24:43.107Z,15.13
2022-11-19T14:27:23.834Z,14.73
2022-11-19T14:29:52.298Z,14.13
2022-11-19T14:32:29.087Z,14.65
2022-11-19T14:35:02.328Z,14.80
2022-11-19T14:37:51.938Z,15.43
2022-11-19T14:40:28.273Z,15.98
2022-11-19T14:43:20.036Z,14.82
2022-11-19T14:46:10.567Z,15.15
2022-11-19T14:48:41.011Z,15.05
2022-11-19T14:51:18.908Z,14.95
2022-11-19T14:54:12.537Z,14.88
2022-11-19T14:56:40.913Z,13.90
2022-11-19T14:59:20.221Z,14.45
2022-11-19T15:02:18.526Z,13.40
2022-11-19T15:05:16.661Z,13.45
2022-11-19T15:07:55.916Z,13.82
2022-11-19T15:10:28.315Z,13.20
2022-11-19T15:13:19.585Z,13.88
2022-11-19T15:15:50.309Z,14.45
2022-11-19T15:18:39.859Z,13.57
2022-11-19T15:21:10.398Z,14.57
2022-11-19T15:23:46.569Z,13.43
2022-11-19T15:26:32.836Z,13.18
2022-11-19T15:29:42.887Z,13.63
2022-11-19T15:32:40.982Z,13.00
2022-11-19T15:35:17.325Z,13.52
2022-11-19T15:37:59.023Z,13.00
2022-11-19T15:40:29.875Z,13.18
2022-11-19T15:43:36.276Z,12.98
2022-11-19T15:46:19.624Z,12.63
2022-11-19T15:49:12.109Z,12.45
2022-11-19T15:52:02.457Z,11.88
2022-11-19T15:54:32.468Z,13.25
2022-11-19T15:57:07.042Z,12.50
2022-11-19T15:59:38.253Z,12.30
2022-11-19T16:02:16.961Z,11.80
2022-11-19T16:04:44.359Z,12.60
2022-11-19T16:07:12.417Z,11.38
2022-11-19T16:09:40.442Z,10.93
2022-11-19T16:12:36.520Z,11.32
2022-11-19T16:15:33.570Z,11.52
2022-11-19T16:18:00.868Z,11.57
2022-11-19T16:20:28.165Z,10.82
2022-11-19T16:23:00.918Z,11.18
2022-11-19T16:25:35.440Z,11.23
2022-11-19T16:28:10.960Z,10.10
2022-11-19T16:30:53.250Z,10.60
2022-11-19T16:33:28.836Z,10.45
2022-11-19T16:36:19.662Z,10.85
2022-11-19T16:38:51.629Z,9.38
2022-11-19T16:41:41.021Z,9.80
2022-11-19T16:44:21.373Z,9.40
2022-11-19T16:46:49.499Z,9.95
2022-11-19T16:49:48.959Z,9.43
2022-11-19T16:52:45.502Z,9.80
2022-11-19T16:55:18.832Z,10.00
2022-11-19T16:57:54.692Z,9.48
2022-11-19T17:00:25.032Z,9.50
2022-11-19T17:02:52.722Z,8.90
2022-11-19T17:05:24.700Z,9.95
2022-11-19T17:07:53.790Z,9.50
2022-11-19T17:10:24.563Z,9.40
2022-11-19T17:12:59.845Z,9.52
2022-11-19T17:15:40.516Z,9.02
2022-11-19T17:18:13.513Z,9.20
2022-11-19T17:20:43.561Z,9.32
2022-11-19T17:23:16.784Z,8.90
2022-11-19T17:25:55.934Z,9.18
2022-11-19T17:28:36.003Z,8.55
2022-11-19T17:31:19.312Z,9.07
2022-11-19T17:34:11.839Z,8.32
2022-11-19T17:36:39.938Z,9.13
2022-11-19T17:39:14.892Z,9.00
2022-11-19T17:42:02.714Z,9.00
2022-11-19T17:44:36.332Z,8.55
2022-11-19T17:47:21.365Z,8.77
2022-11-19T17:49:50.271Z,9.80
2022-11-19T17:52:28.894Z,10.52
2022-11-19T17:55:09.024Z,12.10
2022-11-19T17:57:42.234Z,12.70
2022-11-19T18:00:10.962Z,13.05
2022-11-19T18:02:38.482Z,13.73
2022-11-19T18:05:19.515Z,13.50
2022-11-19T18:07:46.869Z,13.45
2022-11-19T18:10:14.420Z,13.30
2022-11-19T18:12:41.683Z,13.70
2022-11-19T18:15:20.021Z,13.35
2022-11-19T18:17:47.650Z,13.38
2022-11-19T18:20:14.990Z,13.05
2022-11-19T18:22:42.310Z,13.35
2022-11-19T18:25:15.700Z,12.25
2022-11-19T18:27:43.309Z,12.55
2022-11-19T18:30:11.446Z,12.95
2022-11-19T18:32:38.829Z,12.23
2022-11-19T18:35:17.904Z,12.05
2022-11-19T18:37:45.819Z,12.35
2022-11-19T18:40:14.985Z,12.15
2022-11-19T18:43:02.847Z,11.75
2022-11-19T18:45:30.557Z,11.00
2022-11-19T18:47:57.908Z,12.25
2022-11-19T18:50:29.518Z,10.98
2022-11-19T18:52:57.111Z,11.25
2022-11-19T18:55:24.437Z,11.05
2022-11-19T18:57:51.681Z,11.05
2022-11-19T19:00:19.181Z,11.05
2022-11-19T19:02:46.428Z,10.38
2022-11-19T19:05:13.693Z,11.38
2022-11-19T19:07:40.945Z,10.98
2022-11-19T19:10:08.518Z,10.45
2022-11-19T19:12:35.780Z,11.05
2022-11-19T19:15:03.510Z,10.55
2022-11-19T19:17:31.429Z,11.20
2022-11-19T19:19:58.629Z,9.90
2022-11-19T19:22:25.876Z,10.40
2022-11-19T19:24:57.990Z,10.85
2022-11-19T19:27:25.900Z,9.98
2022-11-19T19:29:53.260Z,10.02
2022-11-19T19:32:20.533Z,9.65
2022-11-19T19:34:47.870Z,8.90
2022-11-19T19:37:15.242Z,8.75
2022-11-19T19:39:42.471Z,9.60
2022-11-19T19:42:09.977Z,9.60
2022-11-19T19:44:37.650Z,8.93
2022-11-19T19:47:05.351Z,9.23
2022-11-19T19:49:37.509Z,9.38
2022-11-19T19:52:06.288Z,8.82
2022-11-19T19:54:33.597Z,9.38
2022-11-19T19:57:00.850Z,9.10
2022-11-19T19:59:28.075Z,8.48
2022-11-19T20:01:55.452Z,8.55
2022-11-19T20:04:22.788Z,8.32
2022-11-19T20:06:51.757Z,8.43
2022-11-19T20:09:19.108Z,8.50
2022-11-19T20:11:46.934Z,8.38
2022-11-19T20:14:14.223Z,8.40
2022-11-19T20:16:42.063Z,8.40
2022-11-19T20:19:14.391Z,8.98
2022-11-19T20:21:41.846Z,9.15
2022-11-19T20:24:12.667Z,8.40
2022-11-19T20:26:42.109Z,8.98
2022-11-19T20:29:13.156Z,8.73
2022-11-19T20:31:44.634Z,8.68
2022-11-19T20:34:12.837Z,8.73
2022-11-19T20:36:40.244Z,8.77
2022-11-19T20:39:07.649Z,8.15
2022-11-19T20:41:53.261Z,9.02
2022-11-19T20:44:21.048Z,8.65
2022-11-19T20:46:57.805Z,8.25
2022-11-19T20:49:27.317Z,8.18
2022-11-19T20:51:55.646Z,8.20
2022-11-19T20:54:23.581Z,8.48
2022-11-19T20:56:52.859Z,7.68
2022-11-19T20:59:21.429Z,7.95
2022-11-19T21:01:50.220Z,8.38
2022-11-19T21:04:18.497Z,8.38
2022-11-19T21:06:46.283Z,8.48
2022-11-19T21:09:15.746Z,8.40
2022-11-19T21:11:44.011Z,7.97
2022-11-19T21:14:11.936Z,7.88
2022-11-19T21:16:39.265Z,8.07
2022-11-19T21:19:06.515Z,8.60
2022-11-19T21:21:34.667Z,8.48
2022-11-19T21:24:01.943Z,7.85
2022-11-19T21:26:30.103Z,8.75
2022-11-19T21:28:58.637Z,8.32
2022-11-19T21:32:00.825Z,8.98
2022-11-19T21:34:28.122Z,8.88
2022-11-19T21:36:57.937Z,8.45
2022-11-19T21:39:26.154Z,8.52
2022-11-19T21:41:53.479Z,8.45
2022-11-19T21:44:22.039Z,8.15
2022-11-19T21:46:49.521Z,8.30
2022-11-19T21:49:16.784Z,8.75
2022-11-19T21:51:44.179Z,9.38
2022-11-19T21:54:11.405Z,9.40
2022-11-19T21:56:39.178Z,8.73
2022-11-19T21:59:07.323Z,8.75
2022-11-19T22:01:35.084Z,9.20
2022-11-19T22:04:02.604Z,9.63
2022-11-19T22:06:31.447Z,9.10
2022-11-19T22:08:58.752Z,9.38
2022-11-19T22:11:28.665Z,9.05
2022-11-19T22:14:01.219Z,9.85
2022-11-19T22:16:28.813Z,9.00
2022-11-19T22:18:56.222Z,9.55
2022-11-19T22:21:23.585Z,9.38
2022-11-19T22:23:52.633Z,9.43
2022-11-19T22:26:20.039Z,9.85
2022-11-19T22:28:47.284Z,9.55
2022-11-19T22:31:15.680Z,9.00
2022-11-19T22:33:43.141Z,9.05
2022-11-19T22:36:11.477Z,9.77
2022-11-19T22:38:39.669Z,9.20
2022-11-19T22:41:10.202Z,10.07
2022-11-19T22:43:38.656Z,9.32
2022-11-19T22:46:08.541Z,8.75
2022-11-19T22:48:36.750Z,9.00
2022-11-19T22:51:09.759Z,8.77
2022-11-19T22:53:38.162Z,8.73
2022-11-19T22:56:07.812Z,9.00
2022-11-19T22:58:35.972Z,9.45
2022-11-19T23:01:04.669Z,8.52
2022-11-19T23:03:32.082Z,9.10
2022-11-19T23:05:59.377Z,9.30
2022-11-19T23:08:27.058Z,9.02
2022-11-19T23:10:59.621Z,9.65
2022-11-19T23:13:32.834Z,9.15
2022-11-19T23:16:07.896Z,9.32
2022-11-19T23:18:38.486Z,9.75
2022-11-19T23:21:09.602Z,8.98
2022-11-19T23:23:37.176Z,9.43
2022-11-19T23:26:06.449Z,9.98
2022-11-19T23:28:35.726Z,8.90
2022-11-19T23:31:04.264Z,9.45
2022-11-19T23:33:31.757Z,8.98
2022-11-19T23:36:07.522Z,9.38
2022-11-19T23:38:38.405Z,9.65
2022-11-19T23:41:07.940Z,9.98
2022-11-19T23:43:36.129Z,9.07
2022-11-19T23:46:14.601Z,9.38
2022-11-19T23:48:44.188Z,9.07
2022-11-19T23:51:14.147Z,9.02
2022-11-19T23:53:42.032Z,8.80
2022-11-19T23:56:10.090Z,9.57
2022-11-19T23:58:37.956Z,8.82
